Menomonee Falls, WI (53051)

5:29 PM CDT on August 27, 2014 (GMT -0500)
Lilly Creek Highlands | Change Station
CLOSE
Current Station
Personal Weather Station
Location: Menomonee Falls, WI
Elevation: 794 ft
Nearby Weather Stations

Elev 794 ft 43.14 °N, 88.08 °W | Updated 13 minutes ago

Clear
Clear
72.3 °F
Feels Like 74 °F
N
3.8
Wind Variable Wind from ENE
Gusts 8.3 mph

Today
High -- | Low -- °F
--% Chance of Precip.
Yesterday
High -- | Low -- °F
Precip. -- in
6:11 AM 7:35 PM
Waxing Crescent, 5% visible
Pressure 30.16 in
Visibility 10.0 miles
Clouds Clear
Heat Index 74 °F
Dew Point 63 °F
Humidity 73%
Rainfall 0.00 in
Snow Depth Not available.
UV 3 out of 12
Pollen 9.30 out of 12
Air Quality Not available.
Flu Activity Not available.
METAR KMWC 272145Z 09005KT 10SM SKC 22/15 A3016

More Conditions Fewer Conditions

Pressure 30.16 in
Visibility 10.0 miles
Clouds Clear
Heat Index 74 °F
Dew Point 63 °F
Humidity 73%
Rainfall 0.00 in
Snow Depth Not available.
UV 3 out of 12
Pollen 9.30 out of 12
Air Quality Not available.
Flu Activity Not available.
METAR KMWC 272145Z 09005KT 10SM SKC 22/15 A3016

More Conditions Fewer Conditions

10-Day Weather Forecast

Almanac

Astronomy

Aug. 27, 2014 Rise Set
Actual Time 6:11 AM CDT 7:35 PM CDT
Civil Twilight 5:41 AM CDT 8:05 PM CDT
Nautical Twilight 5:05 AM CDT 8:41 PM CDT
Astronomical Twilight 4:27 AM CDT 9:18 PM CDT
Moon 8:11 AM CDT 8:22 PM CDT
Length of Visible Light 14h 23m
Length of Day
13h 24m
Tomorrow will be 2m 47s shorter.
Waxing Crescent, 5% of the Moon is Illuminated
Today
Waxing Crescent
Sep 2
First Quarter
Sep 8
Full
Sep 15
Last Quarter
Sep 24
New

Today's Extremes

State Highs State Lows

Community

WunderPhotos

Upload Photos

1,747,806 photos uploaded!

Nearby

Snow Depth

Station Depth Elevation
No new snow has been reported.

Earthquake Activity

City Distance Mag. Time & Date
No recent earthquake activity has been reported nearby.
Minimum magnitude displayed is 2.5.

Coastal Water Temperatures

Place Temperature
No Stations Reporting

Nearby Weather Stations